KSAA/SAA METAR and TAF weather

Enter ICAO airport designator
Station Type Date Time Source
KSAA METAR 2021/05/17 22:15 UTC NOAA

KSAA 172215Z AUTO 03005KT 10SM SCT120 16/03 A2997 RMK AO2 LTG DSNT SE


Station Type Date Time Source
KSAA Decoded METAR 2021/05/17 22:15 UTC NOAA

Station name not available
May 17, 2021 - 06:15 PM EDT / 2021.05.17 2215 UTC
Wind: from the NNE (030 degrees) at 6 MPH (5 KT):0
Visibility: 10 mile(s):0
Sky conditions: partly cloudy
Weather: Lightning observed
Temperature: 60 F (16 C)
Dew Point: 37 F (3 C)
Relative Humidity: 41%
Pressure (altimeter): 29.97 in. Hg (1014 hPa)
ob: KSAA 172215Z AUTO 03005KT 10SM SCT120 16/03 A2997 RMK AO2 LTG DSNT SE
cycle: 22

Station Type Date Time Source
KSAA TAF UTC NOAA

Error!

Example: see airport list